createdAt,value
2017-12-01T00:01:55.696Z,10.51
2017-12-01T00:04:23.473Z,10.87
2017-12-01T00:06:51.019Z,10.80
2017-12-01T00:09:18.621Z,11.02
2017-12-01T00:11:46.547Z,11.15
2017-12-01T00:14:14.085Z,11.23
2017-12-01T00:16:41.763Z,11.24
2017-12-01T00:19:09.388Z,11.18
2017-12-01T00:21:36.951Z,11.15
2017-12-01T00:24:04.578Z,11.05
2017-12-01T00:26:32.139Z,11.24
2017-12-01T00:28:59.734Z,11.23
2017-12-01T00:31:27.318Z,11.41
2017-12-01T00:33:56.779Z,11.72
2017-12-01T00:36:24.394Z,11.82
2017-12-01T00:38:52.191Z,11.78
2017-12-01T00:41:19.749Z,11.56
2017-12-01T00:43:47.304Z,11.38
2017-12-01T00:46:14.842Z,11.58
2017-12-01T00:48:42.406Z,11.77
2017-12-01T00:51:10.157Z,11.54
2017-12-01T00:53:37.790Z,11.66
2017-12-01T00:56:05.345Z,11.66
2017-12-01T00:58:32.929Z,11.47
2017-12-01T01:01:00.499Z,11.33
2017-12-01T01:03:28.087Z,11.58
2017-12-01T01:05:55.609Z,11.71
2017-12-01T01:08:24.129Z,11.51
2017-12-01T01:10:51.684Z,11.46
2017-12-01T01:13:19.206Z,11.50
2017-12-01T01:15:46.790Z,11.67
2017-12-01T01:18:15.214Z,11.73
2017-12-01T01:20:42.775Z,11.47
2017-12-01T01:23:10.387Z,11.67
2017-12-01T01:25:38.017Z,11.65
2017-12-01T01:28:05.545Z,11.54
2017-12-01T01:30:33.153Z,11.60
2017-12-01T01:33:00.726Z,11.48
2017-12-01T01:35:28.324Z,11.38
2017-12-01T01:37:55.927Z,11.51
2017-12-01T01:40:23.489Z,11.68
2017-12-01T01:42:51.061Z,11.64
2017-12-01T01:45:18.694Z,11.67
2017-12-01T01:47:46.260Z,11.50
2017-12-01T01:50:13.779Z,11.23
2017-12-01T01:52:41.361Z,11.04
2017-12-01T01:55:09.572Z,11.13
2017-12-01T01:57:37.208Z,11.39
2017-12-01T02:00:07.105Z,11.53
2017-12-01T02:02:34.652Z,11.42
2017-12-01T02:05:02.268Z,11.44
2017-12-01T02:07:29.862Z,11.50
2017-12-01T02:09:57.410Z,11.66
2017-12-01T02:12:25.174Z,11.62
2017-12-01T02:14:52.758Z,11.48
2017-12-01T02:17:20.915Z,11.44
2017-12-01T02:19:48.478Z,11.69
2017-12-01T02:22:16.096Z,11.47
2017-12-01T02:24:43.677Z,11.75
2017-12-01T02:27:11.266Z,11.37
2017-12-01T02:29:38.937Z,11.07
2017-12-01T02:32:06.547Z,11.38
2017-12-01T02:34:34.143Z,11.58
2017-12-01T02:37:01.698Z,11.49
2017-12-01T02:39:29.277Z,11.31
2017-12-01T02:41:56.842Z,11.40
2017-12-01T02:44:24.427Z,11.41
2017-12-01T02:46:52.043Z,11.14
2017-12-01T02:49:19.611Z,11.34
2017-12-01T02:51:47.156Z,11.35
2017-12-01T02:54:14.718Z,10.96
2017-12-01T02:56:42.284Z,11.18
2017-12-01T02:59:09.833Z,11.21
2017-12-01T03:01:37.435Z,11.20
2017-12-01T03:04:05.000Z,10.90
2017-12-01T03:06:32.551Z,11.20
2017-12-01T03:09:00.109Z,11.24
2017-12-01T03:11:27.682Z,11.09
2017-12-01T03:13:55.200Z,10.74
2017-12-01T03:16:22.816Z,11.00
2017-12-01T03:18:50.372Z,11.02
2017-12-01T03:21:17.930Z,10.94
2017-12-01T03:23:45.518Z,10.96
2017-12-01T03:26:13.079Z,10.70
2017-12-01T03:28:40.610Z,11.04
2017-12-01T03:31:08.219Z,11.15
2017-12-01T03:33:35.778Z,10.74
2017-12-01T03:36:03.360Z,10.52
2017-12-01T03:38:30.929Z,10.74
2017-12-01T03:40:58.458Z,10.58
2017-12-01T03:43:26.049Z,10.26
2017-12-01T03:45:53.641Z,10.50
2017-12-01T03:48:21.198Z,10.58
2017-12-01T03:50:48.745Z,10.70
2017-12-01T03:53:16.450Z,10.82
2017-12-01T03:55:44.035Z,10.91
2017-12-01T03:58:11.601Z,10.75
2017-12-01T04:00:39.209Z,10.70
2017-12-01T04:03:07.000Z,10.71
2017-12-01T04:05:34.554Z,10.86
2017-12-01T04:08:02.145Z,10.27
2017-12-01T04:10:30.003Z,10.33
2017-12-01T04:12:57.663Z,10.40
2017-12-01T04:15:25.330Z,10.43
2017-12-01T04:17:52.901Z,10.60
2017-12-01T04:20:20.496Z,10.56
2017-12-01T04:22:48.071Z,9.93
2017-12-01T04:25:15.628Z,10.07
2017-12-01T04:27:43.177Z,10.29
2017-12-01T04:30:10.995Z,10.46
2017-12-01T04:32:38.581Z,10.34
2017-12-01T04:35:06.169Z,10.46
2017-12-01T04:37:33.732Z,10.35
2017-12-01T04:40:01.354Z,10.02
2017-12-01T04:42:28.893Z,10.26
2017-12-01T04:44:56.526Z,10.38
2017-12-01T04:47:24.119Z,10.08
2017-12-01T04:49:51.680Z,10.43
2017-12-01T04:52:19.350Z,10.66
2017-12-01T04:54:46.926Z,10.71
2017-12-01T04:57:15.193Z,10.65
2017-12-01T04:59:42.778Z,10.61
2017-12-01T05:02:10.394Z,10.68
2017-12-01T05:04:37.951Z,10.40
2017-12-01T05:07:05.530Z,10.42
2017-12-01T05:09:33.216Z,10.35
2017-12-01T05:12:01.395Z,10.40
2017-12-01T05:14:28.984Z,10.16
2017-12-01T05:16:56.606Z,9.96
2017-12-01T05:19:24.205Z,10.20
2017-12-01T05:21:52.762Z,10.31
2017-12-01T05:24:20.362Z,10.05
2017-12-01T05:26:47.929Z,9.89
2017-12-01T05:29:15.495Z,10.56
2017-12-01T05:31:43.080Z,10.54
2017-12-01T05:34:10.668Z,10.63
2017-12-01T05:36:38.865Z,10.65
2017-12-01T05:39:06.469Z,10.67
2017-12-01T05:41:34.022Z,10.60
2017-12-01T05:44:01.565Z,11.03
2017-12-01T05:46:29.202Z,11.24
2017-12-01T05:48:56.735Z,11.36
2017-12-01T05:51:24.334Z,10.91
2017-12-01T05:53:51.926Z,10.80
2017-12-01T05:56:19.535Z,11.07
2017-12-01T05:58:47.097Z,11.01
2017-12-01T06:01:14.701Z,10.61
2017-12-01T06:03:42.321Z,10.80
2017-12-01T06:06:09.895Z,10.87
2017-12-01T06:08:37.474Z,10.95
2017-12-01T06:11:05.327Z,11.04
2017-12-01T06:13:32.925Z,10.66
2017-12-01T06:16:00.636Z,10.87
2017-12-01T06:18:28.297Z,10.85
2017-12-01T06:20:55.887Z,11.08
2017-12-01T06:23:23.477Z,10.98
2017-12-01T06:25:51.068Z,11.01
2017-12-01T06:28:18.670Z,10.84
2017-12-01T06:30:46.277Z,10.86
2017-12-01T06:33:13.823Z,10.66
2017-12-01T06:35:41.382Z,10.63
2017-12-01T06:38:08.955Z,10.65
2017-12-01T06:40:37.256Z,10.86
2017-12-01T06:43:05.667Z,10.86
2017-12-01T06:45:38.305Z,10.81
2017-12-01T06:48:05.918Z,10.84
2017-12-01T06:50:33.528Z,10.50
2017-12-01T06:53:01.129Z,10.58
2017-12-01T06:55:28.846Z,10.87
2017-12-01T06:57:56.419Z,10.98
2017-12-01T07:00:24.100Z,10.95
2017-12-01T07:02:51.924Z,11.01
2017-12-01T07:05:20.296Z,11.10
2017-12-01T07:07:47.909Z,11.15
2017-12-01T07:10:15.467Z,11.16
2017-12-01T07:12:43.037Z,11.30
2017-12-01T07:15:10.589Z,11.22
2017-12-01T07:17:38.150Z,11.35
2017-12-01T07:20:05.909Z,11.18
2017-12-01T07:22:33.818Z,11.38
2017-12-01T07:25:01.476Z,11.20
2017-12-01T07:27:29.091Z,11.15
2017-12-01T07:29:56.889Z,11.04
2017-12-01T07:32:25.157Z,11.26
2017-12-01T07:34:52.731Z,11.29
2017-12-01T07:37:20.291Z,11.02
2017-12-01T07:39:47.920Z,11.08
2017-12-01T07:42:15.545Z,10.89
2017-12-01T07:44:48.678Z,10.84
2017-12-01T07:47:16.274Z,10.79
2017-12-01T07:49:44.035Z,10.85
2017-12-01T07:52:11.663Z,10.74
2017-12-01T07:54:39.218Z,10.81
2017-12-01T07:57:06.989Z,10.75
2017-12-01T07:59:34.597Z,10.76
2017-12-01T08:02:02.259Z,10.62
2017-12-01T08:04:30.242Z,10.65
2017-12-01T08:06:57.797Z,10.65
2017-12-01T08:09:25.405Z,10.41
2017-12-01T08:11:53.013Z,10.57
2017-12-01T08:14:20.663Z,10.65
2017-12-01T08:17:00.210Z,10.41
2017-12-01T08:19:27.778Z,10.35
2017-12-01T08:22:07.237Z,10.36
2017-12-01T08:24:46.582Z,10.27
2017-12-01T08:27:14.133Z,10.27
2017-12-01T08:29:41.744Z,10.22
2017-12-01T08:32:09.313Z,10.15
2017-12-01T08:34:36.869Z,10.09
2017-12-01T08:37:04.624Z,10.17
2017-12-01T08:39:32.244Z,10.13
2017-12-01T08:42:00.011Z,10.24
2017-12-01T08:44:27.592Z,10.24
2017-12-01T08:46:55.162Z,10.30
2017-12-01T08:49:23.013Z,10.31
2017-12-01T08:51:50.775Z,10.36
2017-12-01T08:54:18.659Z,10.27
2017-12-01T08:56:47.065Z,10.21
2017-12-01T08:59:14.662Z,10.05
2017-12-01T09:01:42.283Z,10.16
2017-12-01T09:04:09.890Z,10.33
2017-12-01T09:06:37.488Z,10.25
2017-12-01T09:09:05.098Z,10.33
2017-12-01T09:11:32.725Z,10.40
2017-12-01T09:14:00.279Z,10.39
2017-12-01T09:16:27.851Z,10.05
2017-12-01T09:18:55.663Z,10.29
2017-12-01T09:21:23.254Z,10.37
2017-12-01T09:23:50.809Z,10.04
2017-12-01T09:26:18.575Z,10.20
2017-12-01T09:28:46.179Z,10.23
2017-12-01T09:31:13.810Z,10.07
2017-12-01T09:33:41.627Z,10.07
2017-12-01T09:36:09.408Z,10.23
2017-12-01T09:38:37.012Z,10.23
2017-12-01T09:41:04.633Z,10.24
2017-12-01T09:43:32.454Z,10.30
2017-12-01T09:46:00.059Z,10.31
2017-12-01T09:48:27.640Z,10.04
2017-12-01T09:50:55.394Z,9.75
2017-12-01T09:53:23.001Z,10.10
2017-12-01T09:55:50.807Z,10.30
2017-12-01T09:58:18.385Z,10.35
2017-12-01T10:00:46.029Z,10.38
2017-12-01T10:03:13.621Z,10.32
2017-12-01T10:05:41.222Z,10.41
2017-12-01T10:08:08.844Z,9.90
2017-12-01T10:10:36.457Z,10.50
2017-12-01T10:13:04.239Z,10.28
2017-12-01T10:15:31.862Z,10.27
2017-12-01T10:17:59.627Z,10.53
2017-12-01T10:20:27.222Z,10.52
2017-12-01T10:22:55.606Z,10.46
2017-12-01T10:25:23.378Z,10.38
2017-12-01T10:27:51.003Z,10.27
2017-12-01T10:30:18.578Z,10.52
2017-12-01T10:32:46.339Z,10.27
2017-12-01T10:35:13.861Z,10.36
2017-12-01T10:37:41.694Z,10.32
2017-12-01T10:40:09.271Z,10.48
2017-12-01T10:42:37.053Z,10.56
2017-12-01T10:45:04.664Z,10.65
2017-12-01T10:47:32.273Z,10.63
2017-12-01T10:50:00.031Z,10.65
2017-12-01T10:52:27.600Z,10.32
2017-12-01T10:54:55.179Z,10.47
2017-12-01T10:57:22.773Z,10.59
2017-12-01T10:59:50.585Z,10.63
2017-12-01T11:02:18.217Z,10.65
2017-12-01T11:04:46.041Z,10.53
2017-12-01T11:07:13.641Z,10.70
2017-12-01T11:09:41.261Z,10.64
2017-12-01T11:12:09.034Z,10.49
2017-12-01T11:14:36.630Z,10.73
2017-12-01T11:17:04.217Z,10.91
2017-12-01T11:19:31.796Z,10.65
2017-12-01T11:21:59.546Z,10.68
2017-12-01T11:24:27.122Z,10.94
2017-12-01T11:26:54.727Z,10.89
2017-12-01T11:29:22.518Z,10.92
2017-12-01T11:31:50.076Z,10.84
2017-12-01T11:34:17.650Z,10.95
2017-12-01T11:36:45.242Z,10.69
2017-12-01T11:39:13.049Z,10.82
2017-12-01T11:41:40.578Z,10.70
2017-12-01T11:44:08.339Z,10.65
2017-12-01T11:46:35.975Z,10.82
2017-12-01T11:49:11.198Z,10.81
2017-12-01T11:51:39.815Z,10.88
2017-12-01T11:54:14.827Z,10.91
2017-12-01T11:56:42.432Z,10.74
2017-12-01T11:59:09.966Z,10.64
2017-12-01T12:01:37.567Z,10.76
2017-12-01T12:04:05.476Z,10.90
2017-12-01T12:06:40.842Z,10.35
2017-12-01T12:09:08.668Z,10.58
2017-12-01T12:11:40.128Z,10.73
2017-12-01T12:14:38.887Z,10.78
2017-12-01T12:17:10.088Z,10.71
2017-12-01T12:19:37.725Z,10.67
2017-12-01T12:22:12.597Z,10.78
2017-12-01T12:24:43.859Z,10.73
2017-12-01T12:27:11.486Z,10.83
2017-12-01T12:29:39.562Z,10.91
2017-12-01T12:32:07.130Z,10.99
2017-12-01T12:34:34.745Z,11.09
2017-12-01T12:37:02.365Z,10.87
2017-12-01T12:39:30.184Z,10.72
2017-12-01T12:42:05.395Z,10.97
2017-12-01T12:44:32.979Z,10.93
2017-12-01T12:47:00.575Z,10.35
2017-12-01T12:49:28.152Z,10.76
2017-12-01T12:51:55.812Z,10.68
2017-12-01T12:54:23.606Z,10.44
2017-12-01T12:56:51.445Z,10.71
2017-12-01T12:59:19.059Z,10.54
2017-12-01T13:01:46.664Z,10.58
2017-12-01T13:04:14.472Z,10.86
2017-12-01T13:06:49.417Z,10.79
2017-12-01T13:09:17.264Z,10.94
2017-12-01T13:11:52.703Z,10.99
2017-12-01T13:14:20.260Z,10.63
2017-12-01T13:16:47.831Z,10.86
2017-12-01T13:19:31.009Z,10.89
2017-12-01T13:21:59.014Z,10.93
2017-12-01T13:24:33.797Z,11.09
2017-12-01T13:27:01.407Z,11.05
2017-12-01T13:29:28.966Z,10.89
2017-12-01T13:31:56.568Z,10.78
2017-12-01T13:34:24.205Z,10.68
2017-12-01T13:36:51.831Z,10.96
2017-12-01T13:39:19.433Z,10.86
2017-12-01T13:41:47.024Z,10.84
2017-12-01T13:44:14.684Z,10.79
2017-12-01T13:46:42.284Z,10.75
2017-12-01T13:49:09.864Z,10.95
2017-12-01T13:51:37.643Z,10.85
2017-12-01T13:54:05.239Z,10.92
2017-12-01T13:56:32.861Z,10.98
2017-12-01T13:59:00.470Z,10.83
2017-12-01T14:01:28.261Z,10.77
2017-12-01T14:03:55.830Z,10.49
2017-12-01T14:06:23.428Z,10.64
2017-12-01T14:08:51.006Z,10.45
2017-12-01T14:11:18.669Z,10.58
2017-12-01T14:13:46.417Z,10.52
2017-12-01T14:16:13.991Z,10.74
2017-12-01T14:18:41.541Z,10.68
2017-12-01T14:21:09.121Z,10.54
2017-12-01T14:23:36.685Z,10.78
2017-12-01T14:26:04.233Z,10.74
2017-12-01T14:28:31.816Z,10.78
2017-12-01T14:30:59.421Z,10.84
2017-12-01T14:33:27.205Z,10.75
2017-12-01T14:35:54.964Z,10.60
2017-12-01T14:38:23.434Z,10.80
2017-12-01T14:40:51.130Z,10.71
2017-12-01T14:43:18.770Z,10.75
2017-12-01T14:45:46.541Z,10.81
2017-12-01T14:48:14.296Z,10.85
2017-12-01T14:50:42.789Z,10.86
2017-12-01T14:53:10.429Z,10.74
2017-12-01T14:55:38.014Z,10.74
2017-12-01T14:58:05.549Z,10.77
2017-12-01T15:00:33.387Z,11.01
2017-12-01T15:03:01.109Z,11.00
2017-12-01T15:05:28.650Z,10.77
2017-12-01T15:07:56.386Z,10.87
2017-12-01T15:10:24.048Z,10.83
2017-12-01T15:12:53.313Z,10.97
2017-12-01T15:15:21.024Z,10.73
2017-12-01T15:17:48.808Z,10.88
2017-12-01T15:20:16.349Z,10.94
2017-12-01T15:22:43.991Z,10.96
2017-12-01T15:25:11.828Z,11.05
2017-12-01T15:27:39.484Z,10.86
2017-12-01T15:30:08.008Z,10.86
2017-12-01T15:32:35.566Z,10.70
2017-12-01T15:35:03.248Z,10.89
2017-12-01T15:37:30.917Z,10.93
2017-12-01T15:39:58.515Z,10.65
2017-12-01T15:42:26.284Z,10.90
2017-12-01T15:44:54.120Z,11.00
2017-12-01T15:47:21.721Z,11.01
2017-12-01T15:49:49.470Z,10.86
2017-12-01T15:52:17.037Z,10.77
2017-12-01T15:54:44.608Z,10.87
2017-12-01T15:57:12.219Z,10.86
2017-12-01T15:59:40.160Z,10.91
2017-12-01T16:02:07.796Z,10.95
2017-12-01T16:04:35.496Z,10.89
2017-12-01T16:07:04.063Z,10.74
2017-12-01T16:09:31.663Z,10.53
2017-12-01T16:11:59.228Z,10.79
2017-12-01T16:14:26.847Z,10.84
2017-12-01T16:16:54.522Z,10.75
2017-12-01T16:19:22.460Z,10.87
2017-12-01T16:21:50.667Z,10.82
2017-12-01T16:24:18.271Z,10.62
2017-12-01T16:26:45.871Z,10.95
2017-12-01T16:29:13.495Z,10.96
2017-12-01T16:31:41.196Z,10.55
2017-12-01T16:34:08.907Z,11.09
2017-12-01T16:36:36.833Z,11.17
2017-12-01T16:39:04.487Z,10.95
2017-12-01T16:41:32.094Z,11.11
2017-12-01T16:44:06.876Z,11.05
2017-12-01T16:46:34.484Z,10.93
2017-12-01T16:49:02.095Z,11.07
2017-12-01T16:51:29.725Z,10.99
2017-12-01T16:53:57.494Z,10.99
2017-12-01T16:56:25.138Z,10.99
2017-12-01T16:58:52.723Z,10.92
2017-12-01T17:01:21.265Z,10.84
2017-12-01T17:03:48.878Z,10.85
2017-12-01T17:06:17.296Z,10.74
2017-12-01T17:08:45.032Z,10.66
2017-12-01T17:11:50.216Z,10.44
2017-12-01T17:14:28.522Z,10.50
2017-12-01T17:16:56.141Z,10.44
2017-12-01T17:19:23.775Z,10.44
2017-12-01T17:21:52.274Z,10.06
2017-12-01T17:24:27.633Z,10.43
2017-12-01T17:26:55.240Z,10.40
2017-12-01T17:29:26.259Z,10.30
2017-12-01T17:31:57.653Z,10.39
2017-12-01T17:37:15.802Z,10.35
2017-12-01T17:39:44.097Z,10.43
2017-12-01T17:42:11.878Z,10.46
2017-12-01T17:44:43.080Z,10.29
2017-12-01T17:47:10.873Z,10.17
2017-12-01T17:49:38.690Z,10.15
2017-12-01T17:56:06.264Z,10.14
2017-12-01T18:05:15.163Z,10.21
2017-12-01T18:07:42.964Z,10.30
2017-12-01T18:10:11.463Z,10.26
2017-12-01T18:12:39.117Z,10.44
2017-12-01T18:15:06.740Z,10.45
2017-12-01T18:17:34.421Z,11.00
2017-12-01T18:20:02.148Z,10.74
2017-12-01T18:22:29.934Z,10.69
2017-12-01T18:24:58.948Z,10.76
2017-12-01T18:27:26.552Z,10.47
2017-12-01T18:30:24.887Z,10.66
2017-12-01T18:33:00.478Z,10.68
2017-12-01T18:35:28.560Z,10.57
2017-12-01T18:37:56.185Z,10.47
2017-12-01T18:40:23.837Z,10.37
2017-12-01T18:42:51.866Z,10.32
2017-12-01T18:48:05.678Z,10.14
2017-12-01T18:50:34.948Z,10.13
2017-12-01T18:53:03.363Z,10.18
2017-12-01T18:55:31.400Z,10.26
2017-12-01T18:57:59.060Z,10.17
2017-12-01T19:00:26.683Z,10.18
2017-12-01T19:03:01.438Z,10.17
2017-12-01T19:05:29.262Z,10.09
2017-12-01T19:11:28.313Z,10.25
2017-12-01T19:13:55.882Z,10.25
2017-12-01T19:16:23.573Z,10.15
2017-12-01T19:18:52.124Z,10.15
2017-12-01T19:21:20.347Z,10.07
2017-12-01T19:23:49.278Z,10.04
2017-12-01T19:26:17.822Z,10.01
2017-12-01T19:28:45.559Z,10.02
2017-12-01T19:31:14.097Z,9.89
2017-12-01T19:33:42.583Z,9.75
2017-12-01T19:36:10.134Z,9.67
2017-12-01T19:38:38.482Z,9.70
2017-12-01T19:41:08.435Z,9.69
2017-12-01T19:43:37.597Z,9.64
2017-12-01T19:46:06.755Z,9.61
2017-12-01T19:48:37.832Z,9.65
2017-12-01T19:51:06.940Z,9.49
2017-12-01T19:53:36.270Z,9.67
2017-12-01T19:56:04.284Z,9.51
2017-12-01T19:58:33.948Z,9.42
2017-12-01T20:01:08.118Z,9.51
2017-12-01T20:03:38.638Z,9.61
2017-12-01T20:06:07.723Z,9.53
2017-12-01T20:08:36.565Z,9.54
2017-12-01T20:11:09.736Z,9.52
2017-12-01T20:13:39.252Z,9.41
2017-12-01T20:16:08.514Z,9.59
2017-12-01T20:18:36.558Z,9.54
2017-12-01T20:21:04.326Z,9.47
2017-12-01T20:23:32.634Z,9.49
2017-12-01T20:26:00.494Z,9.48
2017-12-01T20:28:31.408Z,9.48
2017-12-01T20:31:00.286Z,9.58
2017-12-01T20:33:27.927Z,9.57
2017-12-01T20:36:16.143Z,9.60
2017-12-01T20:38:51.701Z,9.56
2017-12-01T20:41:19.402Z,9.55
2017-12-01T20:43:47.193Z,9.52
2017-12-01T20:46:15.457Z,9.47
2017-12-01T20:48:43.217Z,9.55
2017-12-01T20:51:10.992Z,9.75
2017-12-01T20:53:38.585Z,9.51
2017-12-01T20:56:06.355Z,9.64
2017-12-01T20:58:34.220Z,9.86
2017-12-01T21:01:01.893Z,9.51
2017-12-01T21:07:00.143Z,9.76
2017-12-01T21:09:27.943Z,9.72
2017-12-01T21:12:29.753Z,9.89
2017-12-01T21:14:58.072Z,9.75
2017-12-01T21:17:26.616Z,9.80
2017-12-01T21:19:54.361Z,9.84
2017-12-01T21:22:22.610Z,9.78
2017-12-01T21:24:50.194Z,10.08
2017-12-01T21:27:17.839Z,10.01
2017-12-01T21:29:46.292Z,10.11
2017-12-01T21:32:14.392Z,10.07
2017-12-01T21:34:42.009Z,10.10
2017-12-01T21:37:09.705Z,10.01
2017-12-01T21:39:37.306Z,9.94
2017-12-01T21:42:04.914Z,9.74
2017-12-01T21:44:32.564Z,9.75
2017-12-01T21:47:00.237Z,9.76
2017-12-01T21:49:28.227Z,9.60
2017-12-01T21:51:56.783Z,9.73
2017-12-01T21:54:24.395Z,9.81
2017-12-01T21:56:52.061Z,9.68
2017-12-01T21:59:20.091Z,9.61
2017-12-01T22:01:47.730Z,9.76
2017-12-01T22:04:15.362Z,9.57
2017-12-01T22:06:43.010Z,9.42
2017-12-01T22:09:10.597Z,9.65
2017-12-01T22:11:38.202Z,9.76
2017-12-01T22:14:06.342Z,9.73
2017-12-01T22:16:33.974Z,9.83
2017-12-01T22:19:01.519Z,9.68
2017-12-01T22:21:29.067Z,9.76
2017-12-01T22:23:56.657Z,9.74
2017-12-01T22:26:24.258Z,9.63
2017-12-01T22:28:51.893Z,9.72
2017-12-01T22:31:19.469Z,9.71
2017-12-01T22:33:47.063Z,9.78
2017-12-01T22:36:14.844Z,9.72
2017-12-01T22:38:42.500Z,9.53
2017-12-01T22:41:10.302Z,9.75
2017-12-01T22:43:38.086Z,9.76
2017-12-01T22:46:05.716Z,9.76
2017-12-01T22:48:33.498Z,9.67
2017-12-01T22:51:01.056Z,9.56
2017-12-01T22:53:28.646Z,9.62
2017-12-01T22:55:56.212Z,9.64
2017-12-01T22:58:24.193Z,9.47
2017-12-01T23:00:51.876Z,9.51
2017-12-01T23:03:19.597Z,9.44
2017-12-01T23:05:47.801Z,9.25
2017-12-01T23:08:15.457Z,9.42
2017-12-01T23:10:43.039Z,9.41
2017-12-01T23:13:10.900Z,9.48
2017-12-01T23:15:38.803Z,9.66
2017-12-01T23:18:07.366Z,9.46
2017-12-01T23:20:35.183Z,9.53
2017-12-01T23:23:03.252Z,9.51
2017-12-01T23:25:30.860Z,9.55
2017-12-01T23:27:58.441Z,9.51
2017-12-01T23:30:26.040Z,9.46
2017-12-01T23:33:00.981Z,9.40
2017-12-01T23:35:30.179Z,9.36
2017-12-01T23:37:57.964Z,9.44
2017-12-01T23:47:08.494Z,9.51
2017-12-01T23:49:36.294Z,9.47
2017-12-01T23:52:06.228Z,9.46
2017-12-01T23:54:41.065Z,9.30
2017-12-01T23:57:08.698Z,9.38
2017-12-01T23:59:36.461Z,9.34
